sensor_id;sensor_type;location;lat;lon;timestamp;temperature;humidity
12166;DHT22;6146;48.128;11.476;2022-12-19T00:02:08;-3.90;99.90
12166;DHT22;6146;48.128;11.476;2022-12-19T00:04:33;-3.90;99.90
12166;DHT22;6146;48.128;11.476;2022-12-19T00:06:59;-3.90;99.90
12166;DHT22;6146;48.128;11.476;2022-12-19T00:09:25;-3.90;99.90
12166;DHT22;6146;48.128;11.476;2022-12-19T00:11:52;-3.80;99.90
12166;DHT22;6146;48.128;11.476;2022-12-19T00:14:18;-3.80;99.90
12166;DHT22;6146;48.128;11.476;2022-12-19T00:16:44;-4.00;99.90
12166;DHT22;6146;48.128;11.476;2022-12-19T00:19:10;-4.00;99.90
12166;DHT22;6146;48.128;11.476;2022-12-19T00:21:36;-4.00;99.90
12166;DHT22;6146;48.128;11.476;2022-12-19T00:24:06;-4.10;99.90
12166;DHT22;6146;48.128;11.476;2022-12-19T00:26:34;-4.00;99.90
12166;DHT22;6146;48.128;11.476;2022-12-19T00:29:04;-4.00;99.90
12166;DHT22;6146;48.128;11.476;2022-12-19T00:31:31;-5.20;99.90
12166;DHT22;6146;48.128;11.476;2022-12-19T00:33:57;-3.90;99.90
12166;DHT22;6146;48.128;11.476;2022-12-19T00:36:25;-3.80;99.90
12166;DHT22;6146;48.128;11.476;2022-12-19T00:38:53;-3.70;99.90
12166;DHT22;6146;48.128;11.476;2022-12-19T00:41:22;-3.60;99.90
12166;DHT22;6146;48.128;11.476;2022-12-19T00:43:56;-3.50;99.90
12166;DHT22;6146;48.128;11.476;2022-12-19T00:46:22;-3.50;99.90
12166;DHT22;6146;48.128;11.476;2022-12-19T00:48:47;-3.40;99.90
12166;DHT22;6146;48.128;11.476;2022-12-19T00:51:16;-3.40;99.90
12166;DHT22;6146;48.128;11.476;2022-12-19T00:53:43;-3.40;99.90
12166;DHT22;6146;48.128;11.476;2022-12-19T00:56:11;-3.40;99.90
12166;DHT22;6146;48.128;11.476;2022-12-19T00:58:37;-3.40;99.90
12166;DHT22;6146;48.128;11.476;2022-12-19T01:01:07;-3.40;99.90
12166;DHT22;6146;48.128;11.476;2022-12-19T01:03:33;-3.50;99.90
12166;DHT22;6146;48.128;11.476;2022-12-19T01:05:59;-3.50;99.90
12166;DHT22;6146;48.128;11.476;2022-12-19T01:08:24;-3.40;99.90
12166;DHT22;6146;48.128;11.476;2022-12-19T01:10:50;-3.40;99.90
12166;DHT22;6146;48.128;11.476;2022-12-19T01:13:18;-3.40;99.90
12166;DHT22;6146;48.128;11.476;2022-12-19T01:15:44;-3.40;99.90
12166;DHT22;6146;48.128;11.476;2022-12-19T01:18:10;-3.40;99.90
12166;DHT22;6146;48.128;11.476;2022-12-19T01:20:44;-3.40;99.90
12166;DHT22;6146;48.128;11.476;2022-12-19T01:23:13;-3.40;99.90
12166;DHT22;6146;48.128;11.476;2022-12-19T01:25:40;-3.30;99.90
12166;DHT22;6146;48.128;11.476;2022-12-19T01:28:06;-3.30;99.90
12166;DHT22;6146;48.128;11.476;2022-12-19T01:30:32;-3.30;99.90
12166;DHT22;6146;48.128;11.476;2022-12-19T01:32:59;-3.20;99.90
12166;DHT22;6146;48.128;11.476;2022-12-19T01:35:26;-3.20;99.90
12166;DHT22;6146;48.128;11.476;2022-12-19T01:37:52;-3.10;99.90
12166;DHT22;6146;48.128;11.476;2022-12-19T01:40:19;-3.20;99.90
12166;DHT22;6146;48.128;11.476;2022-12-19T01:42:45;-3.10;99.90
12166;DHT22;6146;48.128;11.476;2022-12-19T01:45:23;-3.10;99.90
12166;DHT22;6146;48.128;11.476;2022-12-19T01:53:14;-3.00;99.90
12166;DHT22;6146;48.128;11.476;2022-12-19T01:55:40;-3.00;99.90
12166;DHT22;6146;48.128;11.476;2022-12-19T01:58:08;-3.00;99.90
12166;DHT22;6146;48.128;11.476;2022-12-19T02:00:34;-2.90;99.90
12166;DHT22;6146;48.128;11.476;2022-12-19T02:03:15;-2.90;99.90
12166;DHT22;6146;48.128;11.476;2022-12-19T02:05:44;-2.90;99.90
12166;DHT22;6146;48.128;11.476;2022-12-19T02:08:10;-3.00;99.90
12166;DHT22;6146;48.128;11.476;2022-12-19T02:10:36;-3.00;99.90
12166;DHT22;6146;48.128;11.476;2022-12-19T02:13:01;-3.00;99.90
12166;DHT22;6146;48.128;11.476;2022-12-19T02:15:31;-3.00;99.90
12166;DHT22;6146;48.128;11.476;2022-12-19T02:18:14;-3.10;99.90
12166;DHT22;6146;48.128;11.476;2022-12-19T02:20:50;-3.20;99.90
12166;DHT22;6146;48.128;11.476;2022-12-19T02:31:35;-3.40;99.90
12166;DHT22;6146;48.128;11.476;2022-12-19T02:34:21;-3.40;99.90
12166;DHT22;6146;48.128;11.476;2022-12-19T02:37:10;-3.50;99.90
12166;DHT22;6146;48.128;11.476;2022-12-19T02:39:54;-3.60;99.90
12166;DHT22;6146;48.128;11.476;2022-12-19T02:42:28;-3.60;99.90
12166;DHT22;6146;48.128;11.476;2022-12-19T02:44:56;-3.60;99.90
12166;DHT22;6146;48.128;11.476;2022-12-19T02:47:23;-3.70;99.90
12166;DHT22;6146;48.128;11.476;2022-12-19T02:49:49;-3.70;99.90
12166;DHT22;6146;48.128;11.476;2022-12-19T02:54:43;-3.70;99.90
12166;DHT22;6146;48.128;11.476;2022-12-19T02:57:31;-3.70;99.90
12166;DHT22;6146;48.128;11.476;2022-12-19T03:00:03;-3.60;99.90
12166;DHT22;6146;48.128;11.476;2022-12-19T03:07:41;-3.50;99.90
12166;DHT22;6146;48.128;11.476;2022-12-19T03:12:46;-3.50;99.90
12166;DHT22;6146;48.128;11.476;2022-12-19T03:15:13;-3.40;99.90
12166;DHT22;6146;48.128;11.476;2022-12-19T03:17:39;-3.40;99.90
12166;DHT22;6146;48.128;11.476;2022-12-19T03:20:09;-3.30;99.90
12166;DHT22;6146;48.128;11.476;2022-12-19T03:22:35;-3.30;99.90
12166;DHT22;6146;48.128;11.476;2022-12-19T03:25:01;-3.30;99.90
12166;DHT22;6146;48.128;11.476;2022-12-19T03:27:29;-3.30;99.90
12166;DHT22;6146;48.128;11.476;2022-12-19T03:30:05;-3.50;99.90
12166;DHT22;6146;48.128;11.476;2022-12-19T03:32:32;-3.40;99.90
12166;DHT22;6146;48.128;11.476;2022-12-19T03:35:16;-3.50;99.90
12166;DHT22;6146;48.128;11.476;2022-12-19T03:37:43;-3.40;99.90
12166;DHT22;6146;48.128;11.476;2022-12-19T03:40:13;-3.40;99.90
12166;DHT22;6146;48.128;11.476;2022-12-19T03:42:41;-3.40;99.90
12166;DHT22;6146;48.128;11.476;2022-12-19T03:51:06;-3.50;99.90
12166;DHT22;6146;48.128;11.476;2022-12-19T03:56:29;-3.50;99.90
12166;DHT22;6146;48.128;11.476;2022-12-19T03:59:07;-3.50;99.90
12166;DHT22;6146;48.128;11.476;2022-12-19T04:01:34;-3.50;99.90
12166;DHT22;6146;48.128;11.476;2022-12-19T04:04:02;-3.50;99.90
12166;DHT22;6146;48.128;11.476;2022-12-19T04:06:29;-3.50;99.90
12166;DHT22;6146;48.128;11.476;2022-12-19T04:08:57;-3.60;99.90
12166;DHT22;6146;48.128;11.476;2022-12-19T04:11:29;-3.60;99.90
12166;DHT22;6146;48.128;11.476;2022-12-19T04:14:01;-3.60;99.90
12166;DHT22;6146;48.128;11.476;2022-12-19T04:19:09;-3.40;99.90
12166;DHT22;6146;48.128;11.476;2022-12-19T04:21:46;-3.40;99.90
12166;DHT22;6146;48.128;11.476;2022-12-19T04:24:18;-3.40;99.90
12166;DHT22;6146;48.128;11.476;2022-12-19T04:26:46;-3.40;99.90
12166;DHT22;6146;48.128;11.476;2022-12-19T04:29:13;-3.30;99.90
12166;DHT22;6146;48.128;11.476;2022-12-19T04:31:40;-3.30;99.90
12166;DHT22;6146;48.128;11.476;2022-12-19T04:34:06;-3.40;99.90
12166;DHT22;6146;48.128;11.476;2022-12-19T04:36:32;-3.30;99.90
12166;DHT22;6146;48.128;11.476;2022-12-19T04:38:57;-3.30;99.90
12166;DHT22;6146;48.128;11.476;2022-12-19T04:41:23;-3.20;99.90
12166;DHT22;6146;48.128;11.476;2022-12-19T04:43:48;-3.20;99.90
12166;DHT22;6146;48.128;11.476;2022-12-19T04:46:14;-3.20;99.90
12166;DHT22;6146;48.128;11.476;2022-12-19T04:48:39;-3.20;99.90
12166;DHT22;6146;48.128;11.476;2022-12-19T04:51:05;-3.10;99.90
12166;DHT22;6146;48.128;11.476;2022-12-19T04:53:31;-3.10;99.90
12166;DHT22;6146;48.128;11.476;2022-12-19T04:56:05;-3.00;99.90
12166;DHT22;6146;48.128;11.476;2022-12-19T04:58:31;-3.00;99.90
12166;DHT22;6146;48.128;11.476;2022-12-19T05:01:04;-2.90;99.90
12166;DHT22;6146;48.128;11.476;2022-12-19T05:03:30;-2.90;99.90
12166;DHT22;6146;48.128;11.476;2022-12-19T05:06:22;-2.80;99.90
12166;DHT22;6146;48.128;11.476;2022-12-19T05:08:47;-2.80;99.90
12166;DHT22;6146;48.128;11.476;2022-12-19T05:11:14;-2.70;99.90
12166;DHT22;6146;48.128;11.476;2022-12-19T05:13:40;-2.70;99.90
12166;DHT22;6146;48.128;11.476;2022-12-19T05:16:08;-2.60;99.90
12166;DHT22;6146;48.128;11.476;2022-12-19T05:18:35;-2.60;99.90
12166;DHT22;6146;48.128;11.476;2022-12-19T05:21:02;-2.50;99.90
12166;DHT22;6146;48.128;11.476;2022-12-19T05:23:28;-2.50;99.90
12166;DHT22;6146;48.128;11.476;2022-12-19T05:25:57;-2.50;99.90
12166;DHT22;6146;48.128;11.476;2022-12-19T05:28:23;-2.50;99.90
12166;DHT22;6146;48.128;11.476;2022-12-19T05:30:48;-2.40;99.90
12166;DHT22;6146;48.128;11.476;2022-12-19T05:33:14;-2.30;99.90
12166;DHT22;6146;48.128;11.476;2022-12-19T05:35:39;-2.30;99.90
12166;DHT22;6146;48.128;11.476;2022-12-19T05:38:05;-2.20;99.90
12166;DHT22;6146;48.128;11.476;2022-12-19T05:40:31;-2.10;99.90
12166;DHT22;6146;48.128;11.476;2022-12-19T05:42:57;-2.00;99.90
12166;DHT22;6146;48.128;11.476;2022-12-19T05:45:22;-2.10;99.90
12166;DHT22;6146;48.128;11.476;2022-12-19T05:47:48;-2.00;99.90
12166;DHT22;6146;48.128;11.476;2022-12-19T05:50:16;-2.00;99.90
12166;DHT22;6146;48.128;11.476;2022-12-19T05:52:42;-2.00;99.90
12166;DHT22;6146;48.128;11.476;2022-12-19T05:55:09;-2.00;99.90
12166;DHT22;6146;48.128;11.476;2022-12-19T05:57:34;-2.00;99.90
12166;DHT22;6146;48.128;11.476;2022-12-19T06:00:01;-2.00;99.90
12166;DHT22;6146;48.128;11.476;2022-12-19T06:02:26;-2.00;99.90
12166;DHT22;6146;48.128;11.476;2022-12-19T06:04:56;-2.00;99.90
12166;DHT22;6146;48.128;11.476;2022-12-19T06:07:21;-2.00;99.90
12166;DHT22;6146;48.128;11.476;2022-12-19T06:09:47;-2.00;99.90
12166;DHT22;6146;48.128;11.476;2022-12-19T06:12:12;-1.90;99.90
12166;DHT22;6146;48.128;11.476;2022-12-19T06:14:38;-1.90;99.90
12166;DHT22;6146;48.128;11.476;2022-12-19T06:17:03;-1.90;99.90
12166;DHT22;6146;48.128;11.476;2022-12-19T06:19:29;-1.80;99.90
12166;DHT22;6146;48.128;11.476;2022-12-19T06:21:55;-1.80;99.90
12166;DHT22;6146;48.128;11.476;2022-12-19T06:24:23;-1.80;99.90
12166;DHT22;6146;48.128;11.476;2022-12-19T06:26:49;-1.70;99.90
12166;DHT22;6146;48.128;11.476;2022-12-19T06:29:15;-1.70;99.90
12166;DHT22;6146;48.128;11.476;2022-12-19T06:31:40;-1.70;99.90
12166;DHT22;6146;48.128;11.476;2022-12-19T06:34:08;-1.60;99.90
12166;DHT22;6146;48.128;11.476;2022-12-19T06:36:34;-1.60;99.90
12166;DHT22;6146;48.128;11.476;2022-12-19T06:38:59;-1.60;99.90
12166;DHT22;6146;48.128;11.476;2022-12-19T06:41:25;-1.60;99.90
12166;DHT22;6146;48.128;11.476;2022-12-19T06:44:11;-1.60;99.90
12166;DHT22;6146;48.128;11.476;2022-12-19T06:46:37;-1.50;99.90
12166;DHT22;6146;48.128;11.476;2022-12-19T06:49:03;-1.50;99.90
12166;DHT22;6146;48.128;11.476;2022-12-19T06:51:30;-1.50;99.90
12166;DHT22;6146;48.128;11.476;2022-12-19T06:53:55;-1.50;99.90
12166;DHT22;6146;48.128;11.476;2022-12-19T06:56:21;-1.50;99.90
12166;DHT22;6146;48.128;11.476;2022-12-19T06:58:47;-1.60;99.90
12166;DHT22;6146;48.128;11.476;2022-12-19T07:03:42;-1.50;99.90
12166;DHT22;6146;48.128;11.476;2022-12-19T07:06:09;-1.40;99.90
12166;DHT22;6146;48.128;11.476;2022-12-19T07:08:34;-1.30;99.90
12166;DHT22;6146;48.128;11.476;2022-12-19T07:11:00;-1.20;99.90
12166;DHT22;6146;48.128;11.476;2022-12-19T07:13:25;-1.20;99.90
12166;DHT22;6146;48.128;11.476;2022-12-19T07:15:52;-1.20;99.90
12166;DHT22;6146;48.128;11.476;2022-12-19T07:18:19;-1.20;99.90
12166;DHT22;6146;48.128;11.476;2022-12-19T07:20:45;-1.20;99.90
12166;DHT22;6146;48.128;11.476;2022-12-19T07:23:14;-1.20;99.90
12166;DHT22;6146;48.128;11.476;2022-12-19T07:25:42;-1.10;99.90
12166;DHT22;6146;48.128;11.476;2022-12-19T07:28:08;-1.00;99.90
12166;DHT22;6146;48.128;11.476;2022-12-19T07:30:33;-0.90;99.90
12166;DHT22;6146;48.128;11.476;2022-12-19T07:32:59;-0.80;99.90
12166;DHT22;6146;48.128;11.476;2022-12-19T07:35:25;-0.70;99.90
12166;DHT22;6146;48.128;11.476;2022-12-19T07:37:50;-0.60;99.90
12166;DHT22;6146;48.128;11.476;2022-12-19T07:40:16;-0.50;99.90
12166;DHT22;6146;48.128;11.476;2022-12-19T07:42:43;-0.30;99.90
12166;DHT22;6146;48.128;11.476;2022-12-19T07:45:09;-0.30;99.90
12166;DHT22;6146;48.128;11.476;2022-12-19T07:47:35;-0.20;99.90
12166;DHT22;6146;48.128;11.476;2022-12-19T07:50:00;-0.20;99.90
12166;DHT22;6146;48.128;11.476;2022-12-19T07:52:26;-0.10;99.90
12166;DHT22;6146;48.128;11.476;2022-12-19T07:54:52;-0.10;99.90
12166;DHT22;6146;48.128;11.476;2022-12-19T07:57:17;-0.10;99.90
12166;DHT22;6146;48.128;11.476;2022-12-19T07:59:43;-0.10;99.90
12166;DHT22;6146;48.128;11.476;2022-12-19T08:02:09;0.00;99.90
12166;DHT22;6146;48.128;11.476;2022-12-19T08:04:34;0.10;99.90
12166;DHT22;6146;48.128;11.476;2022-12-19T08:07:00;0.10;99.90
12166;DHT22;6146;48.128;11.476;2022-12-19T08:09:27;0.30;99.90
12166;DHT22;6146;48.128;11.476;2022-12-19T08:11:53;0.50;99.90
12166;DHT22;6146;48.128;11.476;2022-12-19T08:14:19;0.60;99.90
12166;DHT22;6146;48.128;11.476;2022-12-19T08:16:45;0.70;99.90
12166;DHT22;6146;48.128;11.476;2022-12-19T08:19:10;0.70;99.90
12166;DHT22;6146;48.128;11.476;2022-12-19T08:21:36;0.80;99.90
12166;DHT22;6146;48.128;11.476;2022-12-19T08:24:02;0.90;99.90
12166;DHT22;6146;48.128;11.476;2022-12-19T08:26:27;0.90;99.90
12166;DHT22;6146;48.128;11.476;2022-12-19T08:28:54;1.00;99.90
12166;DHT22;6146;48.128;11.476;2022-12-19T08:31:24;1.10;99.90
12166;DHT22;6146;48.128;11.476;2022-12-19T08:33:56;1.30;99.90
12166;DHT22;6146;48.128;11.476;2022-12-19T08:36:22;1.30;99.90
12166;DHT22;6146;48.128;11.476;2022-12-19T08:38:49;1.50;99.90
12166;DHT22;6146;48.128;11.476;2022-12-19T08:41:15;1.70;99.90
12166;DHT22;6146;48.128;11.476;2022-12-19T08:43:42;2.00;99.90
12166;DHT22;6146;48.128;11.476;2022-12-19T08:46:08;2.10;99.90
12166;DHT22;6146;48.128;11.476;2022-12-19T08:48:34;2.40;99.90
12166;DHT22;6146;48.128;11.476;2022-12-19T08:51:03;2.40;99.90
12166;DHT22;6146;48.128;11.476;2022-12-19T08:53:32;2.60;99.90
12166;DHT22;6146;48.128;11.476;2022-12-19T08:56:04;2.80;99.90
12166;DHT22;6146;48.128;11.476;2022-12-19T08:58:32;3.10;99.90
12166;DHT22;6146;48.128;11.476;2022-12-19T09:00:59;3.30;99.90
12166;DHT22;6146;48.128;11.476;2022-12-19T09:03:25;3.30;99.90
12166;DHT22;6146;48.128;11.476;2022-12-19T09:05:57;3.40;99.90
12166;DHT22;6146;48.128;11.476;2022-12-19T09:08:24;3.50;99.90
12166;DHT22;6146;48.128;11.476;2022-12-19T09:10:59;3.70;99.90
12166;DHT22;6146;48.128;11.476;2022-12-19T09:13:26;3.80;99.90
12166;DHT22;6146;48.128;11.476;2022-12-19T09:16:04;3.80;99.90
12166;DHT22;6146;48.128;11.476;2022-12-19T09:18:30;3.80;99.90
12166;DHT22;6146;48.128;11.476;2022-12-19T09:20:56;4.00;99.90
12166;DHT22;6146;48.128;11.476;2022-12-19T09:23:23;4.20;99.90
12166;DHT22;6146;48.128;11.476;2022-12-19T09:25:54;4.30;99.90
12166;DHT22;6146;48.128;11.476;2022-12-19T09:28:20;4.60;99.90
12166;DHT22;6146;48.128;11.476;2022-12-19T09:30:57;4.80;99.90
12166;DHT22;6146;48.128;11.476;2022-12-19T09:33:23;4.90;99.90
12166;DHT22;6146;48.128;11.476;2022-12-19T09:35:50;5.00;99.90
12166;DHT22;6146;48.128;11.476;2022-12-19T09:38:16;5.10;99.90
12166;DHT22;6146;48.128;11.476;2022-12-19T09:41:01;5.30;99.90
12166;DHT22;6146;48.128;11.476;2022-12-19T09:49:22;5.20;99.90
12166;DHT22;6146;48.128;11.476;2022-12-19T09:52:18;5.30;99.90
12166;DHT22;6146;48.128;11.476;2022-12-19T09:54:55;5.20;99.90
12166;DHT22;6146;48.128;11.476;2022-12-19T09:57:35;5.40;99.90
12166;DHT22;6146;48.128;11.476;2022-12-19T10:00:05;5.70;99.90
12166;DHT22;6146;48.128;11.476;2022-12-19T10:05:32;5.80;99.90
12166;DHT22;6146;48.128;11.476;2022-12-19T10:07:59;5.80;99.90
12166;DHT22;6146;48.128;11.476;2022-12-19T10:10:49;5.80;99.90
12166;DHT22;6146;48.128;11.476;2022-12-19T10:21:14;5.90;99.90
12166;DHT22;6146;48.128;11.476;2022-12-19T10:23:56;6.20;99.90
12166;DHT22;6146;48.128;11.476;2022-12-19T10:26:33;6.40;99.90
12166;DHT22;6146;48.128;11.476;2022-12-19T10:32:23;7.00;99.90
12166;DHT22;6146;48.128;11.476;2022-12-19T10:34:52;6.60;99.90
12166;DHT22;6146;48.128;11.476;2022-12-19T10:37:29;6.40;99.90
12166;DHT22;6146;48.128;11.476;2022-12-19T10:40:12;6.00;99.90
12166;DHT22;6146;48.128;11.476;2022-12-19T10:43:12;6.10;99.90
12166;DHT22;6146;48.128;11.476;2022-12-19T10:45:49;6.10;99.90
12166;DHT22;6146;48.128;11.476;2022-12-19T10:48:18;5.50;99.90
12166;DHT22;6146;48.128;11.476;2022-12-19T10:50:44;5.30;99.90
12166;DHT22;6146;48.128;11.476;2022-12-19T10:53:10;4.70;99.90
12166;DHT22;6146;48.128;11.476;2022-12-19T10:58:46;4.70;99.90
12166;DHT22;6146;48.128;11.476;2022-12-19T11:04:44;4.90;99.90
12166;DHT22;6146;48.128;11.476;2022-12-19T11:09:38;5.50;99.90
12166;DHT22;6146;48.128;11.476;2022-12-19T11:14:34;6.40;99.90
12166;DHT22;6146;48.128;11.476;2022-12-19T11:17:00;6.90;99.90
12166;DHT22;6146;48.128;11.476;2022-12-19T11:19:32;7.40;99.90
12166;DHT22;6146;48.128;11.476;2022-12-19T11:22:05;8.00;99.90
12166;DHT22;6146;48.128;11.476;2022-12-19T11:24:38;8.80;99.90
12166;DHT22;6146;48.128;11.476;2022-12-19T11:27:35;9.80;99.90
12166;DHT22;6146;48.128;11.476;2022-12-19T11:30:17;10.60;99.90
12166;DHT22;6146;48.128;11.476;2022-12-19T11:32:46;11.70;99.90
12166;DHT22;6146;48.128;11.476;2022-12-19T11:35:45;12.80;99.90
12166;DHT22;6146;48.128;11.476;2022-12-19T11:38:14;13.20;99.90
12166;DHT22;6146;48.128;11.476;2022-12-19T11:40:54;13.60;99.40
12166;DHT22;6146;48.128;11.476;2022-12-19T11:43:28;14.00;97.70
12166;DHT22;6146;48.128;11.476;2022-12-19T11:46:04;14.20;96.00
12166;DHT22;6146;48.128;11.476;2022-12-19T11:53:54;15.00;93.70
12166;DHT22;6146;48.128;11.476;2022-12-19T11:56:23;14.70;92.60
12166;DHT22;6146;48.128;11.476;2022-12-19T11:58:53;12.90;94.70
12166;DHT22;6146;48.128;11.476;2022-12-19T12:04:25;12.20;97.30
12166;DHT22;6146;48.128;11.476;2022-12-19T12:06:55;11.90;98.50
12166;DHT22;6146;48.128;11.476;2022-12-19T12:09:25;11.80;98.90
12166;DHT22;6146;48.128;11.476;2022-12-19T12:28:34;9.40;99.90
12166;DHT22;6146;48.128;11.476;2022-12-19T12:45:37;9.40;99.90
12166;DHT22;6146;48.128;11.476;2022-12-19T12:48:16;9.60;99.90
12166;DHT22;6146;48.128;11.476;2022-12-19T12:50:45;9.80;99.90
12166;DHT22;6146;48.128;11.476;2022-12-19T12:53:16;10.00;99.90
12166;DHT22;6146;48.128;11.476;2022-12-19T12:55:42;9.50;99.90
12166;DHT22;6146;48.128;11.476;2022-12-19T12:58:43;9.20;99.90
12166;DHT22;6146;48.128;11.476;2022-12-19T13:01:32;8.90;99.90
12166;DHT22;6146;48.128;11.476;2022-12-19T13:04:23;8.60;99.90
12166;DHT22;6146;48.128;11.476;2022-12-19T13:09:20;8.40;99.90
12166;DHT22;6146;48.128;11.476;2022-12-19T13:12:03;8.40;99.90
12166;DHT22;6146;48.128;11.476;2022-12-19T13:22:44;9.80;99.90
12166;DHT22;6146;48.128;11.476;2022-12-19T13:28:12;10.80;99.90
12166;DHT22;6146;48.128;11.476;2022-12-19T13:36:45;9.70;99.90
12166;DHT22;6146;48.128;11.476;2022-12-19T13:44:48;9.00;99.90
12166;DHT22;6146;48.128;11.476;2022-12-19T13:47:15;8.80;99.90
12166;DHT22;6146;48.128;11.476;2022-12-19T13:49:42;8.60;99.90
12166;DHT22;6146;48.128;11.476;2022-12-19T13:52:10;8.60;99.90
12166;DHT22;6146;48.128;11.476;2022-12-19T13:54:47;8.40;99.90
12166;DHT22;6146;48.128;11.476;2022-12-19T13:57:25;8.20;99.90
12166;DHT22;6146;48.128;11.476;2022-12-19T13:59:52;8.10;99.90
12166;DHT22;6146;48.128;11.476;2022-12-19T14:02:40;7.90;99.90
12166;DHT22;6146;48.128;11.476;2022-12-19T14:07:45;7.70;99.90
12166;DHT22;6146;48.128;11.476;2022-12-19T14:10:17;7.60;99.90
12166;DHT22;6146;48.128;11.476;2022-12-19T14:12:45;7.50;99.90
12166;DHT22;6146;48.128;11.476;2022-12-19T14:15:33;7.20;99.90
12166;DHT22;6146;48.128;11.476;2022-12-19T14:18:02;7.10;99.90
12166;DHT22;6146;48.128;11.476;2022-12-19T14:20:28;6.90;99.90
12166;DHT22;6146;48.128;11.476;2022-12-19T14:22:59;6.70;99.90
12166;DHT22;6146;48.128;11.476;2022-12-19T14:28:07;6.30;99.90
12166;DHT22;6146;48.128;11.476;2022-12-19T14:30:36;6.20;99.90
12166;DHT22;6146;48.128;11.476;2022-12-19T14:33:11;6.00;99.90
12166;DHT22;6146;48.128;11.476;2022-12-19T14:35:43;5.80;99.90
12166;DHT22;6146;48.128;11.476;2022-12-19T14:38:16;5.60;99.90
12166;DHT22;6146;48.128;11.476;2022-12-19T14:40:42;5.40;99.90
12166;DHT22;6146;48.128;11.476;2022-12-19T14:43:13;5.20;99.90
12166;DHT22;6146;48.128;11.476;2022-12-19T14:48:52;4.80;99.90
12166;DHT22;6146;48.128;11.476;2022-12-19T14:51:37;4.70;99.90
12166;DHT22;6146;48.128;11.476;2022-12-19T14:54:17;4.40;99.90
12166;DHT22;6146;48.128;11.476;2022-12-19T14:57:00;4.30;99.90
12166;DHT22;6146;48.128;11.476;2022-12-19T15:04:38;3.90;99.90
12166;DHT22;6146;48.128;11.476;2022-12-19T15:07:06;3.80;99.90
12166;DHT22;6146;48.128;11.476;2022-12-19T15:09:55;3.60;99.90
12166;DHT22;6146;48.128;11.476;2022-12-19T15:12:29;3.40;99.90
12166;DHT22;6146;48.128;11.476;2022-12-19T15:15:22;3.20;99.90
12166;DHT22;6146;48.128;11.476;2022-12-19T15:17:52;3.00;99.90
12166;DHT22;6146;48.128;11.476;2022-12-19T15:20:18;2.90;99.90
12166;DHT22;6146;48.128;11.476;2022-12-19T15:22:44;2.80;99.90
12166;DHT22;6146;48.128;11.476;2022-12-19T15:25:14;2.70;99.90
12166;DHT22;6146;48.128;11.476;2022-12-19T15:27:42;2.70;99.90
12166;DHT22;6146;48.128;11.476;2022-12-19T15:30:17;2.60;99.90
12166;DHT22;6146;48.128;11.476;2022-12-19T15:32:43;2.50;99.90
12166;DHT22;6146;48.128;11.476;2022-12-19T15:35:16;2.40;99.90
12166;DHT22;6146;48.128;11.476;2022-12-19T15:37:42;2.40;99.90
12166;DHT22;6146;48.128;11.476;2022-12-19T15:40:13;2.30;99.90
12166;DHT22;6146;48.128;11.476;2022-12-19T15:42:41;2.30;99.90
12166;DHT22;6146;48.128;11.476;2022-12-19T15:45:12;2.30;99.90
12166;DHT22;6146;48.128;11.476;2022-12-19T15:47:38;2.10;99.90
12166;DHT22;6146;48.128;11.476;2022-12-19T15:50:30;2.00;99.90
12166;DHT22;6146;48.128;11.476;2022-12-19T15:52:58;2.00;99.90
12166;DHT22;6146;48.128;11.476;2022-12-19T15:55:27;2.00;99.90
12166;DHT22;6146;48.128;11.476;2022-12-19T15:57:59;2.00;99.90
12166;DHT22;6146;48.128;11.476;2022-12-19T16:00:30;2.00;99.90
12166;DHT22;6146;48.128;11.476;2022-12-19T16:02:56;2.00;99.90
12166;DHT22;6146;48.128;11.476;2022-12-19T16:05:23;2.00;99.90
12166;DHT22;6146;48.128;11.476;2022-12-19T16:07:50;2.00;99.90
12166;DHT22;6146;48.128;11.476;2022-12-19T16:10:16;0.70;99.90
12166;DHT22;6146;48.128;11.476;2022-12-19T16:12:49;1.90;99.90
12166;DHT22;6146;48.128;11.476;2022-12-19T16:15:27;1.90;99.90
12166;DHT22;6146;48.128;11.476;2022-12-19T16:17:54;1.90;99.90
12166;DHT22;6146;48.128;11.476;2022-12-19T16:20:23;1.90;99.90
12166;DHT22;6146;48.128;11.476;2022-12-19T16:22:50;1.90;99.90
12166;DHT22;6146;48.128;11.476;2022-12-19T16:25:15;1.90;99.90
12166;DHT22;6146;48.128;11.476;2022-12-19T16:27:42;1.90;99.90
12166;DHT22;6146;48.128;11.476;2022-12-19T16:30:20;1.90;99.90
12166;DHT22;6146;48.128;11.476;2022-12-19T16:32:47;1.90;99.90
12166;DHT22;6146;48.128;11.476;2022-12-19T16:35:21;1.90;99.90
12166;DHT22;6146;48.128;11.476;2022-12-19T16:37:48;1.90;99.90
12166;DHT22;6146;48.128;11.476;2022-12-19T16:40:21;1.90;99.90
12166;DHT22;6146;48.128;11.476;2022-12-19T16:42:48;1.90;99.90
12166;DHT22;6146;48.128;11.476;2022-12-19T16:45:19;1.90;99.90
12166;DHT22;6146;48.128;11.476;2022-12-19T16:47:45;1.90;99.90
12166;DHT22;6146;48.128;11.476;2022-12-19T16:50:22;1.90;99.90
12166;DHT22;6146;48.128;11.476;2022-12-19T16:52:50;1.80;99.90
12166;DHT22;6146;48.128;11.476;2022-12-19T16:55:15;1.80;99.90
12166;DHT22;6146;48.128;11.476;2022-12-19T16:57:43;1.80;99.90
12166;DHT22;6146;48.128;11.476;2022-12-19T17:00:12;1.80;99.90
12166;DHT22;6146;48.128;11.476;2022-12-19T17:05:14;1.80;99.90
12166;DHT22;6146;48.128;11.476;2022-12-19T17:07:40;1.80;99.90
12166;DHT22;6146;48.128;11.476;2022-12-19T17:10:06;1.70;99.90
12166;DHT22;6146;48.128;11.476;2022-12-19T17:12:32;1.70;99.90
12166;DHT22;6146;48.128;11.476;2022-12-19T17:14:57;1.60;99.90
12166;DHT22;6146;48.128;11.476;2022-12-19T17:17:23;1.60;99.90
12166;DHT22;6146;48.128;11.476;2022-12-19T17:19:49;1.60;99.90
12166;DHT22;6146;48.128;11.476;2022-12-19T17:22:16;1.60;99.90
12166;DHT22;6146;48.128;11.476;2022-12-19T17:24:44;1.60;99.90
12166;DHT22;6146;48.128;11.476;2022-12-19T17:27:11;1.60;99.90
12166;DHT22;6146;48.128;11.476;2022-12-19T17:29:37;1.60;99.90
12166;DHT22;6146;48.128;11.476;2022-12-19T17:32:03;1.60;99.90
12166;DHT22;6146;48.128;11.476;2022-12-19T17:34:32;1.60;99.90
12166;DHT22;6146;48.128;11.476;2022-12-19T17:36:58;1.60;99.90
12166;DHT22;6146;48.128;11.476;2022-12-19T17:39:27;1.70;99.90
12166;DHT22;6146;48.128;11.476;2022-12-19T17:42:05;1.70;99.90
12166;DHT22;6146;48.128;11.476;2022-12-19T17:44:34;1.80;99.90
12166;DHT22;6146;48.128;11.476;2022-12-19T17:47:00;1.80;99.90
12166;DHT22;6146;48.128;11.476;2022-12-19T17:49:28;1.80;99.90
12166;DHT22;6146;48.128;11.476;2022-12-19T17:51:55;1.80;99.90
12166;DHT22;6146;48.128;11.476;2022-12-19T17:54:22;1.80;99.90
12166;DHT22;6146;48.128;11.476;2022-12-19T17:56:48;1.90;99.90
12166;DHT22;6146;48.128;11.476;2022-12-19T17:59:14;1.90;99.90
12166;DHT22;6146;48.128;11.476;2022-12-19T18:01:40;1.90;99.90
12166;DHT22;6146;48.128;11.476;2022-12-19T18:04:16;1.80;99.90
12166;DHT22;6146;48.128;11.476;2022-12-19T18:06:42;1.90;99.90
12166;DHT22;6146;48.128;11.476;2022-12-19T18:09:18;1.90;99.90
12166;DHT22;6146;48.128;11.476;2022-12-19T18:11:44;1.90;99.90
12166;DHT22;6146;48.128;11.476;2022-12-19T18:14:10;1.90;99.90
12166;DHT22;6146;48.128;11.476;2022-12-19T18:16:36;1.90;99.90
12166;DHT22;6146;48.128;11.476;2022-12-19T18:19:03;1.90;99.90
12166;DHT22;6146;48.128;11.476;2022-12-19T18:21:29;1.90;99.90
12166;DHT22;6146;48.128;11.476;2022-12-19T18:23:54;2.00;99.90